Station Historical Data
Daily Summary for December 25, 2011 Units:  Both    English   Metric
« Previous Day
Next Day »
Daily Weekly Monthly Yearly Custom
  High: Low: Average:
Temperature: 50.9 °F /  10.5 °C 35.3 °F /  1.8 °C 42.7 °F /  5.9 °C
Dew Point: 40.2 °F /  4.6 °C 32.4 °F /  0.2 °C 36.6 °F /  2.6 °C
Humidity: 90% 58% 79%
Wind Speed: 7.0mph /  11.3km/h - 1.1mph /  1.8km/h
Wind Gust: 9.0mph /  14.5km/h - -
Wind- - SSW
Pressure: 30.42 in /  1030 hPa 30.30 in /  1026 hPa -
Precipitation: 0.00 in /  0 mm    
Historical Graphs
 
 
Tabular Data for December 25, 2011
Time Temperature Dew Point Pressure Wind Wind Speed Wind Gust Humidity Rainfall Rate (Hourly) Conditions
00:00 37.9 °F /  3.3 °C 34.1 °F /  1.2 °C 30.42in /  1030hPa North 1.0mph /  1.6km/h 2.0mph /  3.2km/h 86% 0.00in /  0mm
00:01 37.9 °F /  3.3 °C 34.1 °F /  1.2 °C 30.41in /  1029.7hPa North 1.0mph /  1.6km/h 2.0mph /  3.2km/h 86% 0.00in /  0mm
00:06 38.2 °F /  3.4 °C 33.8 °F /  1 °C 30.41in /  1029.7hPa NNE 2.0mph /  3.2km/h 2.0mph /  3.2km/h 84% 0.00in /  0mm
00:11 39.0 °F /  3.9 °C 34.3 °F /  1.3 °C 30.41in /  1029.7hPa NNE 1.0mph /  1.6km/h 2.0mph /  3.2km/h 83% 0.00in /  0mm
00:17 39.5 °F /  4.2 °C 33.8 °F /  1 °C 30.42in /  1030hPa NNE 1.0mph /  1.6km/h 2.0mph /  3.2km/h 80% 0.00in /  0mm
00:22 39.3 °F /  4.1 °C 34.6 °F /  1.4 °C 30.41in /  1029.7hPa NNE 1.0mph /  1.6km/h 2.0mph /  3.2km/h 83% 0.00in /  0mm
00:27 39.2 °F /  4 °C 34.2 °F /  1.2 °C 30.41in /  1029.7hPa NNE 1.0mph /  1.6km/h 3.0mph /  4.8km/h 82% 0.00in /  0mm
00:32 39.3 °F /  4.1 °C 34.3 °F /  1.3 °C 30.40in /  1029.3hPa NNE 2.0mph /  3.2km/h 2.0mph /  3.2km/h 82% 0.00in /  0mm
00:37 39.5 °F /  4.2 °C 34.2 °F /  1.2 °C 30.40in /  1029.3hPa NE 2.0mph /  3.2km/h 3.0mph /  4.8km/h 81% 0.00in /  0mm
00:42 40.0 °F /  4.4 °C 34.3 °F /  1.3 °C 30.39in /  1029hPa NE 3.0mph /  4.8km/h 4.0mph /  6.4km/h 80% 0.00in /  0mm
00:47 40.7 °F /  4.8 °C 34.4 °F /  1.3 °C 30.39in /  1029hPa ENE 2.0mph /  3.2km/h 3.0mph /  4.8km/h 78% 0.00in /  0mm
00:52 41.3 °F /  5.2 °C 34.7 °F /  1.5 °C 30.39in /  1029hPa ENE 2.0mph /  3.2km/h 2.0mph /  3.2km/h 77% 0.00in /  0mm
00:57 41.3 °F /  5.2 °C 34.3 °F /  1.3 °C 30.39in /  1029hPa Calm   2.0mph /  3.2km/h 76% 0.00in /  0mm
01:02 41.1 °F /  5.1 °C 34.8 °F /  1.6 °C 30.38in /  1028.7hPa ENE 1.0mph /  1.6km/h 1.0mph /  1.6km/h 78% 0.00in /  0mm
01:07 40.6 °F /  4.8 °C 35.2 °F /  1.8 °C 30.39in /  1029hPa Calm   1.0mph /  1.6km/h 81% 0.00in /  0mm
01:12 40.0 °F /  4.4 °C 34.3 °F /  1.3 °C 30.39in /  1029hPa Calm     80% 0.00in /  0mm
01:17 39.9 °F /  4.4 °C 34.2 °F /  1.2 °C 30.39in /  1029hPa ESE 1.0mph /  1.6km/h 1.0mph /  1.6km/h 80% 0.00in /  0mm
01:22 39.4 °F /  4.1 °C 34.4 °F /  1.3 °C 30.39in /  1029hPa NNW 2.0mph /  3.2km/h 2.0mph /  3.2km/h 82% 0.00in /  0mm
01:27 38.9 °F /  3.8 °C 34.2 °F /  1.2 °C 30.39in /  1029hPa NNE 1.0mph /  1.6km/h 3.0mph /  4.8km/h 83% 0.00in /  0mm
01:32 38.7 °F /  3.7 °C 34.0 °F /  1.1 °C 30.38in /  1028.7hPa NNE 2.0mph /  3.2km/h 2.0mph /  3.2km/h 83% 0.00in /  0mm
01:37 39.4 °F /  4.1 °C 34.1 °F /  1.2 °C 30.38in /  1028.7hPa NNE 1.0mph /  1.6km/h 2.0mph /  3.2km/h 81% 0.00in /  0mm
01:42 39.6 °F /  4.2 °C 34.0 °F /  1.1 °C 30.38in /  1028.7hPa NNE 2.0mph /  3.2km/h 2.0mph /  3.2km/h 80% 0.00in /  0mm
01:47 39.5 °F /  4.2 °C 34.2 °F /  1.2 °C 30.38in /  1028.7hPa North 1.0mph /  1.6km/h 2.0mph /  3.2km/h 81% 0.00in /  0mm
01:52 38.7 °F /  3.7 °C 34.0 °F /  1.1 °C 30.38in /  1028.7hPa North 2.0mph /  3.2km/h 2.0mph /  3.2km/h 83% 0.00in /  0mm
01:57 38.8 °F /  3.8 °C 34.4 °F /  1.3 °C 30.38in /  1028.7hPa NNE 1.0mph /  1.6km/h 2.0mph /  3.2km/h 84% 0.00in /  0mm
02:02 38.9 °F /  3.8 °C 34.2 °F /  1.2 °C 30.38in /  1028.7hPa North 1.0mph /  1.6km/h 2.0mph /  3.2km/h 83% 0.00in /  0mm
02:07 39.1 °F /  3.9 °C 34.1 °F /  1.2 °C 30.38in /  1028.7hPa North 1.0mph /  1.6km/h 1.0mph /  1.6km/h 82% 0.00in /  0mm
02:12 39.3 °F /  4.1 °C 34.0 °F /  1.1 °C 30.38in /  1028.7hPa Calm   1.0mph /  1.6km/h 81% 0.00in /  0mm
02:17 39.7 °F /  4.3 °C 34.0 °F /  1.1 °C 30.38in /  1028.7hPa NE 1.0mph /  1.6km/h 2.0mph /  3.2km/h 80% 0.00in /  0mm
02:22 40.2 °F /  4.6 °C 34.2 °F /  1.2 °C 30.38in /  1028.7hPa NE 1.0mph /  1.6km/h 2.0mph /  3.2km/h 79% 0.00in /  0mm
02:27 40.3 °F /  4.6 °C 34.0 °F /  1.1 °C 30.38in /  1028.7hPa NE 2.0mph /  3.2km/h 2.0mph /  3.2km/h 78% 0.00in /  0mm
02:32 40.3 °F /  4.6 °C 34.0 °F /  1.1 °C 30.38in /  1028.7hPa NE 2.0mph /  3.2km/h 2.0mph /  3.2km/h 78% 0.00in /  0mm
02:37 40.3 °F /  4.6 °C 34.3 °F /  1.3 °C 30.38in /  1028.7hPa NNE 1.0mph /  1.6km/h 2.0mph /  3.2km/h 79% 0.00in /  0mm
02:42 40.0 °F /  4.4 °C 34.3 °F /  1.3 °C 30.38in /  1028.7hPa North 1.0mph /  1.6km/h 2.0mph /  3.2km/h 80% 0.00in /  0mm
02:47 39.5 °F /  4.2 °C 34.5 °F /  1.4 °C 30.38in /  1028.7hPa North 1.0mph /  1.6km/h 2.0mph /  3.2km/h 82% 0.00in /  0mm
02:52 39.1 °F /  3.9 °C 34.4 °F /  1.3 °C 30.38in /  1028.7hPa NNE 1.0mph /  1.6km/h 2.0mph /  3.2km/h 83% 0.00in /  0mm
02:57 39.3 °F /  4.1 °C 34.3 °F /  1.3 °C 30.38in /  1028.7hPa NE 1.0mph /  1.6km/h 2.0mph /  3.2km/h 82% 0.00in /  0mm
03:02 40.0 °F /  4.4 °C 34.3 °F /  1.3 °C 30.39in /  1029hPa NE 1.0mph /  1.6km/h 1.0mph /  1.6km/h 80% 0.00in /  0mm
03:07 40.3 °F /  4.6 °C 34.6 °F /  1.4 °C 30.39in /  1029hPa NE 1.0mph /  1.6km/h 1.0mph /  1.6km/h 80% 0.00in /  0mm
03:12 40.5 °F /  4.7 °C 34.8 °F /  1.6 °C 30.39in /  1029hPa Calm   1.0mph /  1.6km/h 80% 0.00in /  0mm
03:17 40.5 °F /  4.7 °C 34.5 °F /  1.4 °C 30.39in /  1029hPa NE 1.0mph /  1.6km/h 1.0mph /  1.6km/h 79% 0.00in /  0mm
03:22 40.4 °F /  4.7 °C 34.7 °F /  1.5 °C 30.39in /  1029hPa Calm   1.0mph /  1.6km/h 80% 0.00in /  0mm
03:28 40.3 °F /  4.6 °C 34.6 °F /  1.4 °C 30.39in /  1029hPa Calm     80% 0.00in /  0mm
03:33 40.2 °F /  4.6 °C 34.8 °F /  1.6 °C 30.39in /  1029hPa Calm     81% 0.00in /  0mm
03:38 40.0 °F /  4.4 °C 34.7 °F /  1.5 °C 30.39in /  1029hPa NE 1.0mph /  1.6km/h 1.0mph /  1.6km/h 81% 0.00in /  0mm
03:43 40.0 °F /  4.4 °C 35.0 °F /  1.7 °C 30.40in /  1029.3hPa North 2.0mph /  3.2km/h 3.0mph /  4.8km/h 82% 0.00in /  0mm
03:48 39.6 °F /  4.2 °C 35.5 °F /  1.9 °C 30.39in /  1029hPa NNE 2.0mph /  3.2km/h 3.0mph /  4.8km/h 85% 0.00in /  0mm
03:53 39.3 °F /  4.1 °C 35.5 °F /  1.9 °C 30.39in /  1029hPa ENE 1.0mph /  1.6km/h 1.0mph /  1.6km/h 86% 0.00in /  0mm
03:58 39.6 °F /  4.2 °C 35.2 °F /  1.8 °C 30.40in /  1029.3hPa NNW 2.0mph /  3.2km/h 3.0mph /  4.8km/h 84% 0.00in /  0mm
04:03 39.6 °F /  4.2 °C 35.8 °F /  2.1 °C 30.39in /  1029hPa NNE 2.0mph /  3.2km/h 6.0mph /  9.7km/h 86% 0.00in /  0mm
04:08 39.7 °F /  4.3 °C 35.3 °F /  1.8 °C 30.39in /  1029hPa North 2.0mph /  3.2km/h 3.0mph /  4.8km/h 84% 0.00in /  0mm
04:13 39.8 °F /  4.3 °C 35.1 °F /  1.7 °C 30.38in /  1028.7hPa NNE 2.0mph /  3.2km/h 2.0mph /  3.2km/h 83% 0.00in /  0mm
04:18 39.8 °F /  4.3 °C 35.4 °F /  1.9 °C 30.38in /  1028.7hPa NE 1.0mph /  1.6km/h 2.0mph /  3.2km/h 84% 0.00in /  0mm
04:23 39.8 °F /  4.3 °C 35.4 °F /  1.9 °C 30.37in /  1028.3hPa ESE 2.0mph /  3.2km/h 2.0mph /  3.2km/h 84% 0.00in /  0mm
04:28 40.0 °F /  4.4 °C 35.3 °F /  1.8 °C 30.36in /  1028hPa East 1.0mph /  1.6km/h 1.0mph /  1.6km/h 83% 0.00in /  0mm
04:33 40.1 °F /  4.5 °C 35.4 °F /  1.9 °C 30.36in /  1028hPa ESE 2.0mph /  3.2km/h 2.0mph /  3.2km/h 83% 0.00in /  0mm
04:38 40.1 °F /  4.5 °C 35.7 °F /  2.1 °C 30.35in /  1027.7hPa East 1.0mph /  1.6km/h 3.0mph /  4.8km/h 84% 0.00in /  0mm
04:43 40.1 °F /  4.5 °C 35.7 °F /  2.1 °C 30.35in /  1027.7hPa ESE 3.0mph /  4.8km/h 3.0mph /  4.8km/h 84% 0.00in /  0mm
04:48 40.2 °F /  4.6 °C 35.5 °F /  1.9 °C 30.35in /  1027.7hPa ESE 2.0mph /  3.2km/h 3.0mph /  4.8km/h 83% 0.00in /  0mm
04:53 40.3 °F /  4.6 °C 35.6 °F /  2 °C 30.35in /  1027.7hPa ENE 2.0mph /  3.2km/h 2.0mph /  3.2km/h 83% 0.00in /  0mm
04:58 40.4 °F /  4.7 °C 35.3 °F /  1.8 °C 30.35in /  1027.7hPa Calm   3.0mph /  4.8km/h 82% 0.00in /  0mm
05:03 40.5 °F /  4.7 °C 35.5 °F /  1.9 °C 30.35in /  1027.7hPa North 2.0mph /  3.2km/h 2.0mph /  3.2km/h 82% 0.00in /  0mm
05:08 40.4 °F /  4.7 °C 35.7 °F /  2.1 °C 30.35in /  1027.7hPa NNW 1.0mph /  1.6km/h 2.0mph /  3.2km/h 83% 0.00in /  0mm
05:13 40.2 °F /  4.6 °C 35.8 °F /  2.1 °C 30.35in /  1027.7hPa NNW 2.0mph /  3.2km/h 2.0mph /  3.2km/h 84% 0.00in /  0mm
05:18 39.9 °F /  4.4 °C 35.8 °F /  2.1 °C 30.36in /  1028hPa NNW 2.0mph /  3.2km/h 3.0mph /  4.8km/h 85% 0.00in /  0mm
05:23 39.8 °F /  4.3 °C 35.7 °F /  2.1 °C 30.36in /  1028hPa NNW 2.0mph /  3.2km/h 2.0mph /  3.2km/h 85% 0.00in /  0mm
05:28 39.7 °F /  4.3 °C 35.6 °F /  2 °C 30.36in /  1028hPa NNW 2.0mph /  3.2km/h 3.0mph /  4.8km/h 85% 0.00in /  0mm
05:33 39.7 °F /  4.3 °C 35.6 °F /  2 °C 30.36in /  1028hPa North 3.0mph /  4.8km/h 4.0mph /  6.4km/h 85% 0.00in /  0mm
05:38 39.8 °F /  4.3 °C 35.7 °F /  2.1 °C 30.36in /  1028hPa NNE 2.0mph /  3.2km/h 3.0mph /  4.8km/h 85% 0.00in /  0mm
05:43 39.9 °F /  4.4 °C 35.5 °F /  1.9 °C 30.36in /  1028hPa NNW 2.0mph /  3.2km/h 4.0mph /  6.4km/h 84% 0.00in /  0mm
05:48 39.9 °F /  4.4 °C 35.5 °F /  1.9 °C 30.35in /  1027.7hPa NE 2.0mph /  3.2km/h 3.0mph /  4.8km/h 84% 0.00in /  0mm
05:53 39.9 °F /  4.4 °C 35.5 °F /  1.9 °C 30.36in /  1028hPa NNE 1.0mph /  1.6km/h 2.0mph /  3.2km/h 84% 0.00in /  0mm
05:58 39.9 °F /  4.4 °C 35.2 °F /  1.8 °C 30.35in /  1027.7hPa ENE 1.0mph /  1.6km/h 2.0mph /  3.2km/h 83% 0.00in /  0mm
06:03 40.4 °F /  4.7 °C 35.0 °F /  1.7 °C 30.35in /  1027.7hPa ENE 2.0mph /  3.2km/h 3.0mph /  4.8km/h 81% 0.00in /  0mm
06:08 40.7 °F /  4.8 °C 35.3 °F /  1.8 °C 30.35in /  1027.7hPa NNE 1.0mph /  1.6km/h 2.0mph /  3.2km/h 81% 0.00in /  0mm
06:13 40.7 °F /  4.8 °C 35.6 °F /  2 °C 30.35in /  1027.7hPa NNE 1.0mph /  1.6km/h 1.0mph /  1.6km/h 82% 0.00in /  0mm
06:18 40.6 °F /  4.8 °C 35.5 °F /  1.9 °C 30.35in /  1027.7hPa North 2.0mph /  3.2km/h 2.0mph /  3.2km/h 82% 0.00in /  0mm
06:23 40.5 °F /  4.7 °C 35.8 °F /  2.1 °C 30.35in /  1027.7hPa Calm   2.0mph /  3.2km/h 83% 0.00in /  0mm
06:28 40.5 °F /  4.7 °C 35.8 °F /  2.1 °C 30.36in /  1028hPa SSE 1.0mph /  1.6km/h 2.0mph /  3.2km/h 83% 0.00in /  0mm
06:33 40.5 °F /  4.7 °C 36.3 °F /  2.4 °C 30.37in /  1028.3hPa SSE 1.0mph /  1.6km/h 1.0mph /  1.6km/h 85% 0.00in /  0mm
06:38 40.3 °F /  4.6 °C 36.5 °F /  2.5 °C 30.38in /  1028.7hPa Calm   1.0mph /  1.6km/h 86% 0.00in /  0mm
06:43 40.2 °F /  4.6 °C 36.7 °F /  2.6 °C 30.38in /  1028.7hPa Calm   2.0mph /  3.2km/h 87% 0.00in /  0mm
06:48 40.1 °F /  4.5 °C 36.3 °F /  2.4 °C 30.37in /  1028.3hPa Calm   1.0mph /  1.6km/h 86% 0.00in /  0mm
06:53 40.1 °F /  4.5 °C 36.5 °F /  2.5 °C 30.37in /  1028.3hPa Calm     87% 0.00in /  0mm
06:58 40.0 °F /  4.4 °C 36.2 °F /  2.3 °C 30.37in /  1028.3hPa Calm     86% 0.00in /  0mm
07:03 40.0 °F /  4.4 °C 36.2 °F /  2.3 °C 30.36in /  1028hPa ESE 1.0mph /  1.6km/h 1.0mph /  1.6km/h 86% 0.00in /  0mm
07:08 40.0 °F /  4.4 °C 36.2 °F /  2.3 °C 30.36in /  1028hPa Calm     86% 0.00in /  0mm
07:13 40.0 °F /  4.4 °C 36.2 °F /  2.3 °C 30.36in /  1028hPa Calm   1.0mph /  1.6km/h 86% 0.00in /  0mm
07:18 39.9 °F /  4.4 °C 36.6 °F /  2.6 °C 30.37in /  1028.3hPa Calm   1.0mph /  1.6km/h 88% 0.00in /  0mm
07:23 39.8 °F /  4.3 °C 36.8 °F /  2.7 °C 30.37in /  1028.3hPa Calm   1.0mph /  1.6km/h 89% 0.00in /  0mm
07:28 39.6 °F /  4.2 °C 36.6 °F /  2.6 °C 30.37in /  1028.3hPa Calm     89% 0.00in /  0mm
07:33 39.5 °F /  4.2 °C 36.5 °F /  2.5 °C 30.36in /  1028hPa Calm     89% 0.00in /  0mm
07:38 39.5 °F /  4.2 °C 36.5 °F /  2.5 °C 30.36in /  1028hPa NNW 1.0mph /  1.6km/h 1.0mph /  1.6km/h 89% 0.00in /  0mm
07:44 39.6 °F /  4.2 °C 36.9 °F /  2.7 °C 30.36in /  1028hPa Calm     90% 0.00in /  0mm
07:49 39.6 °F /  4.2 °C 36.6 °F /  2.6 °C 30.36in /  1028hPa Calm   1.0mph /  1.6km/h 89% 0.00in /  0mm
07:54 39.7 °F /  4.3 °C 36.7 °F /  2.6 °C 30.37in /  1028.3hPa NNW 1.0mph /  1.6km/h 1.0mph /  1.6km/h 89% 0.00in /  0mm
07:59 39.7 °F /  4.3 °C 37.0 °F /  2.8 °C 30.36in /  1028hPa SE 2.0mph /  3.2km/h 3.0mph /  4.8km/h 90% 0.00in /  0mm
08:04 39.7 °F /  4.3 °C 37.0 °F /  2.8 °C 30.35in /  1027.7hPa SE 2.0mph /  3.2km/h 3.0mph /  4.8km/h 90% 0.00in /  0mm
08:09 40.1 °F /  4.5 °C 36.5 °F /  2.5 °C 30.35in /  1027.7hPa SE 3.0mph /  4.8km/h 5.0mph /  8km/h 87% 0.00in /  0mm
08:14 40.5 °F /  4.7 °C 36.0 °F /  2.2 °C 30.36in /  1028hPa SE 1.0mph /  1.6km/h 4.0mph /  6.4km/h 84% 0.00in /  0mm
08:19 40.9 °F /  4.9 °C 36.1 °F /  2.3 °C 30.36in /  1028hPa South 3.0mph /  4.8km/h 3.0mph /  4.8km/h 83% 0.00in /  0mm
08:24 41.0 °F /  5 °C 36.8 °F /  2.7 °C 30.37in /  1028.3hPa WSW 1.0mph /  1.6km/h 4.0mph /  6.4km/h 85% 0.00in /  0mm
08:29 41.0 °F /  5 °C 37.1 °F /  2.8 °C 30.38in /  1028.7hPa NE 5.0mph /  8km/h 9.0mph /  14.5km/h 86% 0.00in /  0mm
08:34 41.2 °F /  5.1 °C 36.7 °F /  2.6 °C 30.37in /  1028.3hPa North 7.0mph /  11.3km/h 8.0mph /  12.9km/h 84% 0.00in /  0mm
08:39 41.3 °F /  5.2 °C 36.5 °F /  2.5 °C 30.37in /  1028.3hPa North 2.0mph /  3.2km/h 7.0mph /  11.3km/h 83% 0.00in /  0mm
08:44 41.3 °F /  5.2 °C 36.5 °F /  2.5 °C 30.37in /  1028.3hPa North 1.0mph /  1.6km/h 5.0mph /  8km/h 83% 0.00in /  0mm
08:49 41.4 °F /  5.2 °C 36.9 °F /  2.7 °C 30.37in /  1028.3hPa NE 1.0mph /  1.6km/h 1.0mph /  1.6km/h 84% 0.00in /  0mm
08:54 41.4 °F /  5.2 °C 36.6 °F /  2.6 °C 30.37in /  1028.3hPa SE 2.0mph /  3.2km/h 2.0mph /  3.2km/h 83% 0.00in /  0mm
08:59 41.6 °F /  5.3 °C 36.8 °F /  2.7 °C 30.38in /  1028.7hPa Calm     83% 0.00in /  0mm
09:04 41.7 °F /  5.4 °C 36.9 °F /  2.7 °C 30.38in /  1028.7hPa SE 2.0mph /  3.2km/h 2.0mph /  3.2km/h 83% 0.00in /  0mm
09:09 41.8 °F /  5.4 °C 37.3 °F /  2.9 °C 30.38in /  1028.7hPa SE 1.0mph /  1.6km/h 2.0mph /  3.2km/h 84% 0.00in /  0mm
09:14 41.8 °F /  5.4 °C 37.6 °F /  3.1 °C 30.38in /  1028.7hPa Calm   1.0mph /  1.6km/h 85% 0.00in /  0mm
09:19 41.9 °F /  5.5 °C 37.7 °F /  3.2 °C 30.39in /  1029hPa NNE 1.0mph /  1.6km/h 2.0mph /  3.2km/h 85% 0.00in /  0mm
09:24 42.0 °F /  5.6 °C 37.8 °F /  3.2 °C 30.39in /  1029hPa NNW 2.0mph /  3.2km/h 3.0mph /  4.8km/h 85% 0.00in /  0mm
09:29 42.1 °F /  5.6 °C 37.9 °F /  3.3 °C 30.39in /  1029hPa NE 1.0mph /  1.6km/h 2.0mph /  3.2km/h 85% 0.00in /  0mm
09:34 42.2 °F /  5.7 °C 37.7 °F /  3.2 °C 30.39in /  1029hPa Calm   2.0mph /  3.2km/h 84% 0.00in /  0mm
09:39 42.3 °F /  5.7 °C 37.5 °F /  3.1 °C 30.39in /  1029hPa SE 1.0mph /  1.6km/h 2.0mph /  3.2km/h 83% 0.00in /  0mm
09:44 42.5 °F /  5.8 °C 37.7 °F /  3.2 °C 30.40in /  1029.3hPa NNW 1.0mph /  1.6km/h 2.0mph /  3.2km/h 83% 0.00in /  0mm
09:49 42.7 °F /  5.9 °C 38.5 °F /  3.6 °C 30.41in /  1029.7hPa WNW 2.0mph /  3.2km/h 3.0mph /  4.8km/h 85% 0.00in /  0mm
09:54 42.7 °F /  5.9 °C 38.5 °F /  3.6 °C 30.41in /  1029.7hPa NW 1.0mph /  1.6km/h 3.0mph /  4.8km/h 85% 0.00in /  0mm
09:59 42.8 °F /  6 °C 38.3 °F /  3.5 °C 30.42in /  1030hPa NNW 1.0mph /  1.6km/h 2.0mph /  3.2km/h 84% 0.00in /  0mm
10:04 42.8 °F /  6 °C 38.3 °F /  3.5 °C 30.41in /  1029.7hPa Calm     84% 0.00in /  0mm
10:09 42.9 °F /  6.1 °C 38.4 °F /  3.6 °C 30.42in /  1030hPa NNW 2.0mph /  3.2km/h 2.0mph /  3.2km/h 84% 0.00in /  0mm
10:14 42.9 °F /  6.1 °C 38.7 °F /  3.7 °C 30.41in /  1029.7hPa NNW 1.0mph /  1.6km/h 1.0mph /  1.6km/h 85% 0.00in /  0mm
10:19 42.9 °F /  6.1 °C 38.4 °F /  3.6 °C 30.41in /  1029.7hPa Calm   2.0mph /  3.2km/h 84% 0.00in /  0mm
10:24 43.0 °F /  6.1 °C 38.5 °F /  3.6 °C 30.41in /  1029.7hPa Calm     84% 0.00in /  0mm
10:29 43.1 °F /  6.2 °C 38.6 °F /  3.7 °C 30.41in /  1029.7hPa North 1.0mph /  1.6km/h 1.0mph /  1.6km/h 84% 0.00in /  0mm
10:34 43.2 °F /  6.2 °C 38.7 °F /  3.7 °C 30.40in /  1029.3hPa East 1.0mph /  1.6km/h 1.0mph /  1.6km/h 84% 0.00in /  0mm
10:39 43.3 °F /  6.3 °C 39.1 °F /  3.9 °C 30.40in /  1029.3hPa SE 4.0mph /  6.4km/h 4.0mph /  6.4km/h 85% 0.00in /  0mm
10:44 43.3 °F /  6.3 °C 39.1 °F /  3.9 °C 30.40in /  1029.3hPa SE 1.0mph /  1.6km/h 3.0mph /  4.8km/h 85% 0.00in /  0mm
10:49 43.5 °F /  6.4 °C 39.6 °F /  4.2 °C 30.41in /  1029.7hPa NW 1.0mph /  1.6km/h 3.0mph /  4.8km/h 86% 0.00in /  0mm
10:54 43.7 °F /  6.5 °C 39.5 °F /  4.2 °C 30.40in /  1029.3hPa Calm     85% 0.00in /  0mm
10:59 43.9 °F /  6.6 °C 39.4 °F /  4.1 °C 30.42in /  1030hPa NW 1.0mph /  1.6km/h 3.0mph /  4.8km/h 84% 0.00in /  0mm
11:04 44.1 °F /  6.7 °C 39.9 °F /  4.4 °C 30.41in /  1029.7hPa NNW 2.0mph /  3.2km/h 2.0mph /  3.2km/h 85% 0.00in /  0mm
11:09 44.3 °F /  6.8 °C 39.2 °F /  4 °C 30.40in /  1029.3hPa North 2.0mph /  3.2km/h 3.0mph /  4.8km/h 82% 0.00in /  0mm
11:14 44.5 °F /  6.9 °C 39.7 °F /  4.3 °C 30.40in /  1029.3hPa NNE 2.0mph /  3.2km/h 2.0mph /  3.2km/h 83% 0.00in /  0mm
11:19 44.7 °F /  7.1 °C 39.9 °F /  4.4 °C 30.40in /  1029.3hPa NNW 2.0mph /  3.2km/h 2.0mph /  3.2km/h 83% 0.00in /  0mm
11:24 44.8 °F /  7.1 °C 39.7 °F /  4.3 °C 30.39in /  1029hPa NNE 1.0mph /  1.6km/h 1.0mph /  1.6km/h 82% 0.00in /  0mm
11:29 45.1 °F /  7.3 °C 39.6 °F /  4.2 °C 30.39in /  1029hPa Calm   2.0mph /  3.2km/h 81% 0.00in /  0mm
11:34 45.2 °F /  7.3 °C 39.7 °F /  4.3 °C 30.39in /  1029hPa Calm   2.0mph /  3.2km/h 81% 0.00in /  0mm
11:39 45.3 °F /  7.4 °C 39.5 °F /  4.2 °C 30.38in /  1028.7hPa NNW 1.0mph /  1.6km/h 1.0mph /  1.6km/h 80% 0.00in /  0mm
11:44 45.4 °F /  7.4 °C 39.6 °F /  4.2 °C 30.38in /  1028.7hPa North 1.0mph /  1.6km/h 2.0mph /  3.2km/h 80% 0.00in /  0mm
11:50 45.5 °F /  7.5 °C 39.0 °F /  3.9 °C 30.38in /  1028.7hPa Calm     78% 0.00in /  0mm
11:55 45.8 °F /  7.7 °C 39.7 °F /  4.3 °C 30.38in /  1028.7hPa Calm     79% 0.00in /  0mm
12:00 46.1 °F /  7.8 °C 40.0 °F /  4.4 °C 30.38in /  1028.7hPa Calm   1.0mph /  1.6km/h 79% 0.00in /  0mm
12:05 46.1 °F /  7.8 °C 39.6 °F /  4.2 °C 30.38in /  1028.7hPa NNW 1.0mph /  1.6km/h 2.0mph /  3.2km/h 78% 0.00in /  0mm
12:10 46.1 °F /  7.8 °C 40.0 °F /  4.4 °C 30.38in /  1028.7hPa WNW 1.0mph /  1.6km/h 2.0mph /  3.2km/h 79% 0.00in /  0mm
12:15 46.1 °F /  7.8 °C 39.3 °F /  4.1 °C 30.37in /  1028.3hPa West 1.0mph /  1.6km/h 2.0mph /  3.2km/h 77% 0.00in /  0mm
12:20 46.1 °F /  7.8 °C 39.6 °F /  4.2 °C 30.37in /  1028.3hPa WSW 1.0mph /  1.6km/h 1.0mph /  1.6km/h 78% 0.00in /  0mm
12:25 46.3 °F /  7.9 °C 40.2 °F /  4.6 °C 30.37in /  1028.3hPa SW 2.0mph /  3.2km/h 3.0mph /  4.8km/h 79% 0.00in /  0mm
12:30 46.3 °F /  7.9 °C 39.2 °F /  4 °C 30.37in /  1028.3hPa WSW 1.0mph /  1.6km/h 3.0mph /  4.8km/h 76% 0.00in /  0mm
12:35 46.3 °F /  7.9 °C 39.5 °F /  4.2 °C 30.37in /  1028.3hPa SW 3.0mph /  4.8km/h 3.0mph /  4.8km/h 77% 0.00in /  0mm
12:40 46.4 °F /  8 °C 38.9 °F /  3.8 °C 30.37in /  1028.3hPa WSW 3.0mph /  4.8km/h 3.0mph /  4.8km/h 75% 0.00in /  0mm
12:45 46.3 °F /  7.9 °C 39.5 °F /  4.2 °C 30.37in /  1028.3hPa West 1.0mph /  1.6km/h 4.0mph /  6.4km/h 77% 0.00in /  0mm
12:50 46.4 °F /  8 °C 39.6 °F /  4.2 °C 30.36in /  1028hPa West 2.0mph /  3.2km/h 2.0mph /  3.2km/h 77% 0.00in /  0mm
12:55 46.4 °F /  8 °C 39.9 °F /  4.4 °C 30.36in /  1028hPa WNW 1.0mph /  1.6km/h 2.0mph /  3.2km/h 78% 0.00in /  0mm
13:00 46.5 °F /  8.1 °C 40.0 °F /  4.4 °C 30.36in /  1028hPa West 2.0mph /  3.2km/h 3.0mph /  4.8km/h 78% 0.00in /  0mm
13:05 46.7 °F /  8.2 °C 40.2 °F /  4.6 °C 30.35in /  1027.7hPa Calm   3.0mph /  4.8km/h 78% 0.00in /  0mm
13:10 46.9 °F /  8.3 °C 39.1 °F /  3.9 °C 30.36in /  1028hPa WNW 2.0mph /  3.2km/h 3.0mph /  4.8km/h 74% 0.00in /  0mm
13:15 47.0 °F /  8.3 °C 38.8 °F /  3.8 °C 30.35in /  1027.7hPa WNW 1.0mph /  1.6km/h 2.0mph /  3.2km/h 73% 0.00in /  0mm
13:20 47.1 °F /  8.4 °C 39.2 °F /  4 °C 30.35in /  1027.7hPa WSW 2.0mph /  3.2km/h 2.0mph /  3.2km/h 74% 0.00in /  0mm
13:25 47.4 °F /  8.6 °C 39.5 °F /  4.2 °C 30.35in /  1027.7hPa West 3.0mph /  4.8km/h 3.0mph /  4.8km/h 74% 0.00in /  0mm
13:30 47.6 °F /  8.7 °C 39.0 °F /  3.9 °C 30.35in /  1027.7hPa WSW 2.0mph /  3.2km/h 3.0mph /  4.8km/h 72% 0.00in /  0mm
13:35 47.7 °F /  8.7 °C 38.8 °F /  3.8 °C 30.34in /  1027.3hPa West 2.0mph /  3.2km/h 4.0mph /  6.4km/h 71% 0.00in /  0mm
13:40 48.1 °F /  8.9 °C 38.8 °F /  3.8 °C 30.34in /  1027.3hPa SW 3.0mph /  4.8km/h 4.0mph /  6.4km/h 70% 0.00in /  0mm
13:45 48.3 °F /  9.1 °C 39.3 °F /  4.1 °C 30.34in /  1027.3hPa SW 3.0mph /  4.8km/h 3.0mph /  4.8km/h 71% 0.00in /  0mm
13:46 48.3 °F /  9.1 °C 39.3 °F /  4.1 °C 30.34in /  1027.3hPa SW 3.0mph /  4.8km/h 3.0mph /  4.8km/h 71% 0.00in /  0mm
13:51 48.7 °F /  9.3 °C 39.0 °F /  3.9 °C 30.35in /  1027.7hPa WNW 3.0mph /  4.8km/h 4.0mph /  6.4km/h 69% 0.00in /  0mm
13:56 49.0 °F /  9.4 °C 39.3 °F /  4.1 °C 30.34in /  1027.3hPa NW 1.0mph /  1.6km/h 2.0mph /  3.2km/h 69% 0.00in /  0mm
14:01 49.7 °F /  9.8 °C 38.8 °F /  3.8 °C 30.34in /  1027.3hPa WNW 5.0mph /  8km/h 6.0mph /  9.7km/h 66% 0.00in /  0mm
14:06 49.5 °F /  9.7 °C 37.0 °F /  2.8 °C 30.34in /  1027.3hPa NW 3.0mph /  4.8km/h 7.0mph /  11.3km/h 62% 0.00in /  0mm
14:11 49.5 °F /  9.7 °C 37.8 °F /  3.2 °C 30.33in /  1027hPa WNW 4.0mph /  6.4km/h 4.0mph /  6.4km/h 64% 0.00in /  0mm
14:16 49.8 °F /  9.9 °C 38.5 °F /  3.6 °C 30.34in /  1027.3hPa West 3.0mph /  4.8km/h 3.0mph /  4.8km/h 65% 0.00in /  0mm
14:21 49.9 °F /  9.9 °C 38.6 °F /  3.7 °C 30.34in /  1027.3hPa WNW 3.0mph /  4.8km/h 4.0mph /  6.4km/h 65% 0.00in /  0mm
14:26 50.1 °F /  10.1 °C 35.9 °F /  2.2 °C 30.34in /  1027.3hPa NW 5.0mph /  8km/h 6.0mph /  9.7km/h 58% 0.00in /  0mm
14:31 50.0 °F /  10 °C 36.2 °F /  2.3 °C 30.34in /  1027.3hPa NW 3.0mph /  4.8km/h 7.0mph /  11.3km/h 59% 0.00in /  0mm
14:36 49.9 °F /  9.9 °C 37.0 °F /  2.8 °C 30.34in /  1027.3hPa WNW 1.0mph /  1.6km/h 4.0mph /  6.4km/h 61% 0.00in /  0mm
14:41 49.9 °F /  9.9 °C 36.6 °F /  2.6 °C 30.34in /  1027.3hPa WNW 1.0mph /  1.6km/h 3.0mph /  4.8km/h 60% 0.00in /  0mm
14:46 50.0 °F /  10 °C 36.7 °F /  2.6 °C 30.33in /  1027hPa WNW 1.0mph /  1.6km/h 4.0mph /  6.4km/h 60% 0.00in /  0mm
14:51 50.1 °F /  10.1 °C 36.8 °F /  2.7 °C 30.33in /  1027hPa WNW 1.0mph /  1.6km/h 5.0mph /  8km/h 60% 0.00in /  0mm
14:56 50.1 °F /  10.1 °C 37.6 °F /  3.1 °C 30.33in /  1027hPa West 1.0mph /  1.6km/h 3.0mph /  4.8km/h 62% 0.00in /  0mm
15:01 50.3 °F /  10.2 °C 38.2 °F /  3.4 °C 30.33in /  1027hPa WNW 3.0mph /  4.8km/h 4.0mph /  6.4km/h 63% 0.00in /  0mm
15:06 50.3 °F /  10.2 °C 39.0 °F /  3.9 °C 30.33in /  1027hPa West 1.0mph /  1.6km/h 3.0mph /  4.8km/h 65% 0.00in /  0mm
15:11 50.5 °F /  10.3 °C 38.4 °F /  3.6 °C 30.33in /  1027hPa West 1.0mph /  1.6km/h 3.0mph /  4.8km/h 63% 0.00in /  0mm
15:16 50.5 °F /  10.3 °C 38.0 °F /  3.3 °C 30.33in /  1027hPa SW 2.0mph /  3.2km/h 3.0mph /  4.8km/h 62% 0.00in /  0mm
15:21 50.5 °F /  10.3 °C 38.4 °F /  3.6 °C 30.32in /  1026.6hPa WSW 1.0mph /  1.6km/h 2.0mph /  3.2km/h 63% 0.00in /  0mm
15:26 50.5 °F /  10.3 °C 38.0 °F /  3.3 °C 30.32in /  1026.6hPa West 2.0mph /  3.2km/h 3.0mph /  4.8km/h 62% 0.00in /  0mm
15:31 50.6 °F /  10.3 °C 38.1 °F /  3.4 °C 30.32in /  1026.6hPa West 2.0mph /  3.2km/h 2.0mph /  3.2km/h 62% 0.00in /  0mm
15:36 50.6 °F /  10.3 °C 38.5 °F /  3.6 °C 30.32in /  1026.6hPa West 3.0mph /  4.8km/h 3.0mph /  4.8km/h 63% 0.00in /  0mm
15:41 50.6 °F /  10.3 °C 38.5 °F /  3.6 °C 30.32in /  1026.6hPa West 1.0mph /  1.6km/h 2.0mph /  3.2km/h 63% 0.00in /  0mm
15:47 50.7 °F /  10.4 °C 39.0 °F /  3.9 °C 30.32in /  1026.6hPa SW 3.0mph /  4.8km/h 4.0mph /  6.4km/h 64% 0.00in /  0mm
15:52 50.6 °F /  10.3 °C 38.5 °F /  3.6 °C 30.32in /  1026.6hPa West 2.0mph /  3.2km/h 3.0mph /  4.8km/h 63% 0.00in /  0mm
15:57 50.6 °F /  10.3 °C 38.9 °F /  3.8 °C 30.32in /  1026.6hPa WSW 2.0mph /  3.2km/h 2.0mph /  3.2km/h 64% 0.00in /  0mm
16:02 50.8 °F /  10.4 °C 39.1 °F /  3.9 °C 30.31in /  1026.3hPa SSW 1.0mph /  1.6km/h 3.0mph /  4.8km/h 64% 0.00in /  0mm
16:07 50.9 °F /  10.5 °C 39.2 °F /  4 °C 30.30in /  1026hPa SW 3.0mph /  4.8km/h 4.0mph /  6.4km/h 64% 0.00in /  0mm
16:12 50.9 °F /  10.5 °C 38.4 °F /  3.6 °C 30.30in /  1026hPa SW 3.0mph /  4.8km/h 3.0mph /  4.8km/h 62% 0.00in /  0mm
16:17 50.8 °F /  10.4 °C 39.5 °F /  4.2 °C 30.30in /  1026hPa SSW 3.0mph /  4.8km/h 3.0mph /  4.8km/h 65% 0.00in /  0mm
16:22 50.4 °F /  10.2 °C 39.1 °F /  3.9 °C 30.31in /  1026.3hPa SW 3.0mph /  4.8km/h 4.0mph /  6.4km/h 65% 0.00in /  0mm
16:27 50.1 °F /  10.1 °C 39.6 °F /  4.2 °C 30.32in /  1026.6hPa Calm   3.0mph /  4.8km/h 67% 0.00in /  0mm
16:32 50.0 °F /  10 °C 39.1 °F /  3.9 °C 30.32in /  1026.6hPa SW 2.0mph /  3.2km/h 3.0mph /  4.8km/h 66% 0.00in /  0mm
16:37 49.8 °F /  9.9 °C 40.0 °F /  4.4 °C 30.32in /  1026.6hPa SW 3.0mph /  4.8km/h 3.0mph /  4.8km/h 69% 0.00in /  0mm
16:42 49.5 °F /  9.7 °C 39.8 °F /  4.3 °C 30.32in /  1026.6hPa SW 2.0mph /  3.2km/h 3.0mph /  4.8km/h 69% 0.00in /  0mm
16:47 49.4 °F /  9.7 °C 39.7 °F /  4.3 °C 30.32in /  1026.6hPa SW 1.0mph /  1.6km/h 4.0mph /  6.4km/h 69% 0.00in /  0mm
16:52 49.2 °F /  9.6 °C 39.5 °F /  4.2 °C 30.32in /  1026.6hPa Calm   1.0mph /  1.6km/h 69% 0.00in /  0mm
16:57 49.0 °F /  9.4 °C 39.7 °F /  4.3 °C 30.32in /  1026.6hPa Calm   1.0mph /  1.6km/h 70% 0.00in /  0mm
17:02 48.8 °F /  9.3 °C 39.5 °F /  4.2 °C 30.32in /  1026.6hPa Calm     70% 0.00in /  0mm
17:07 48.6 °F /  9.2 °C 39.3 °F /  4.1 °C 30.33in /  1027hPa Calm     70% 0.00in /  0mm
17:12 48.4 °F /  9.1 °C 38.7 °F /  3.7 °C 30.33in /  1027hPa SW 1.0mph /  1.6km/h 1.0mph /  1.6km/h 69% 0.00in /  0mm
17:17 48.3 °F /  9.1 °C 38.6 °F /  3.7 °C 30.33in /  1027hPa WSW 1.0mph /  1.6km/h 2.0mph /  3.2km/h 69% 0.00in /  0mm
17:22 48.2 °F /  9 °C 38.5 °F /  3.6 °C 30.33in /  1027hPa SW 1.0mph /  1.6km/h 2.0mph /  3.2km/h 69% 0.00in /  0mm
17:27 47.8 °F /  8.8 °C 38.1 °F /  3.4 °C 30.33in /  1027hPa Calm   1.0mph /  1.6km/h 69% 0.00in /  0mm
17:32 47.5 °F /  8.6 °C 38.2 °F /  3.4 °C 30.33in /  1027hPa SW 1.0mph /  1.6km/h 1.0mph /  1.6km/h 70% 0.00in /  0mm
17:37 47.1 °F /  8.4 °C 38.2 °F /  3.4 °C 30.33in /  1027hPa SW 2.0mph /  3.2km/h 2.0mph /  3.2km/h 71% 0.00in /  0mm
17:42 46.7 °F /  8.2 °C 38.2 °F /  3.4 °C 30.33in /  1027hPa SW 1.0mph /  1.6km/h 1.0mph /  1.6km/h 72% 0.00in /  0mm
17:47 46.4 °F /  8 °C 37.9 °F /  3.3 °C 30.34in /  1027.3hPa Calm   1.0mph /  1.6km/h 72% 0.00in /  0mm
17:52 46.3 °F /  7.9 °C 38.1 °F /  3.4 °C 30.34in /  1027.3hPa WSW 1.0mph /  1.6km/h 1.0mph /  1.6km/h 73% 0.00in /  0mm
17:57 46.2 °F /  7.9 °C 38.0 °F /  3.3 °C 30.34in /  1027.3hPa Calm     73% 0.00in /  0mm
18:02 46.1 °F /  7.8 °C 37.9 °F /  3.3 °C 30.34in /  1027.3hPa Calm   1.0mph /  1.6km/h 73% 0.00in /  0mm
18:07 45.9 °F /  7.7 °C 37.8 °F /  3.2 °C 30.34in /  1027.3hPa Calm     73% 0.00in /  0mm
18:12 45.7 °F /  7.6 °C 37.5 °F /  3.1 °C 30.34in /  1027.3hPa Calm   1.0mph /  1.6km/h 73% 0.00in /  0mm
18:17 45.8 °F /  7.7 °C 37.7 °F /  3.2 °C 30.34in /  1027.3hPa Calm   1.0mph /  1.6km/h 73% 0.00in /  0mm
18:22 45.9 °F /  7.7 °C 37.8 °F /  3.2 °C 30.34in /  1027.3hPa Calm     73% 0.00in /  0mm
18:27 46.0 °F /  7.8 °C 37.8 °F /  3.2 °C 30.34in /  1027.3hPa SW 1.0mph /  1.6km/h 2.0mph /  3.2km/h 73% 0.00in /  0mm
18:32 45.6 °F /  7.6 °C 37.8 °F /  3.2 °C 30.34in /  1027.3hPa SW 1.0mph /  1.6km/h 1.0mph /  1.6km/h 74% 0.00in /  0mm
18:37 45.1 °F /  7.3 °C 37.3 °F /  2.9 °C 30.34in /  1027.3hPa SW 1.0mph /  1.6km/h 1.0mph /  1.6km/h 74% 0.00in /  0mm
18:42 44.7 °F /  7.1 °C 37.3 °F /  2.9 °C 30.34in /  1027.3hPa SSW 1.0mph /  1.6km/h 1.0mph /  1.6km/h 75% 0.00in /  0mm
18:47 44.4 °F /  6.9 °C 37.0 °F /  2.8 °C 30.34in /  1027.3hPa Calm   1.0mph /  1.6km/h 75% 0.00in /  0mm
18:52 44.1 °F /  6.7 °C 36.7 °F /  2.6 °C 30.34in /  1027.3hPa SSW 1.0mph /  1.6km/h 1.0mph /  1.6km/h 75% 0.00in /  0mm
18:58 44.0 °F /  6.7 °C 36.9 °F /  2.7 °C 30.34in /  1027.3hPa SSW 1.0mph /  1.6km/h 1.0mph /  1.6km/h 76% 0.00in /  0mm
19:03 43.8 °F /  6.6 °C 36.7 °F /  2.6 °C 30.34in /  1027.3hPa Calm   1.0mph /  1.6km/h 76% 0.00in /  0mm
19:08 43.7 °F /  6.5 °C 36.6 °F /  2.6 °C 30.34in /  1027.3hPa Calm   1.0mph /  1.6km/h 76% 0.00in /  0mm
19:13 43.7 °F /  6.5 °C 36.6 °F /  2.6 °C 30.35in /  1027.7hPa Calm     76% 0.00in /  0mm
19:18 43.3 °F /  6.3 °C 36.6 °F /  2.6 °C 30.35in /  1027.7hPa Calm   1.0mph /  1.6km/h 77% 0.00in /  0mm
19:23 43.0 °F /  6.1 °C 36.6 °F /  2.6 °C 30.35in /  1027.7hPa Calm     78% 0.00in /  0mm
19:28 42.7 °F /  5.9 °C 36.3 °F /  2.4 °C 30.35in /  1027.7hPa SSW 1.0mph /  1.6km/h 1.0mph /  1.6km/h 78% 0.00in /  0mm
19:33 42.7 °F /  5.9 °C 36.3 °F /  2.4 °C 30.35in /  1027.7hPa NNW 1.0mph /  1.6km/h 1.0mph /  1.6km/h 78% 0.00in /  0mm
19:38 42.3 °F /  5.7 °C 36.3 °F /  2.4 °C 30.35in /  1027.7hPa NNW 1.0mph /  1.6km/h 1.0mph /  1.6km/h 79% 0.00in /  0mm
19:43 42.2 °F /  5.7 °C 36.2 °F /  2.3 °C 30.35in /  1027.7hPa Calm     79% 0.00in /  0mm
19:48 41.7 °F /  5.4 °C 36.0 °F /  2.2 °C 30.35in /  1027.7hPa Calm     80% 0.00in /  0mm
19:53 41.2 °F /  5.1 °C 35.5 °F /  1.9 °C 30.35in /  1027.7hPa Calm     80% 0.00in /  0mm
19:58 40.6 °F /  4.8 °C 35.5 °F /  1.9 °C 30.35in /  1027.7hPa Calm     82% 0.00in /  0mm
20:03 39.9 °F /  4.4 °C 34.9 °F /  1.6 °C 30.35in /  1027.7hPa Calm     82% 0.00in /  0mm
20:08 39.2 °F /  4 °C 34.8 °F /  1.6 °C 30.35in /  1027.7hPa Calm     84% 0.00in /  0mm
20:13 38.9 °F /  3.8 °C 34.8 °F /  1.6 °C 30.35in /  1027.7hPa Calm     85% 0.00in /  0mm
20:18 38.9 °F /  3.8 °C 34.8 °F /  1.6 °C 30.35in /  1027.7hPa Calm     85% 0.00in /  0mm
20:23 38.9 °F /  3.8 °C 34.8 °F /  1.6 °C 30.35in /  1027.7hPa Calm     85% 0.00in /  0mm
20:28 38.6 °F /  3.7 °C 34.5 °F /  1.4 °C 30.36in /  1028hPa Calm     85% 0.00in /  0mm
20:33 38.7 °F /  3.7 °C 34.9 °F /  1.6 °C 30.35in /  1027.7hPa Calm     86% 0.00in /  0mm
20:38 38.7 °F /  3.7 °C 34.6 °F /  1.4 °C 30.35in /  1027.7hPa Calm     85% 0.00in /  0mm
20:43 38.3 °F /  3.5 °C 34.5 °F /  1.4 °C 30.36in /  1028hPa Calm     86% 0.00in /  0mm
20:48 38.5 °F /  3.6 °C 35.0 °F /  1.7 °C 30.36in /  1028hPa Calm     87% 0.00in /  0mm
20:53 38.7 °F /  3.7 °C 35.2 °F /  1.8 °C 30.35in /  1027.7hPa Calm     87% 0.00in /  0mm
20:58 38.7 °F /  3.7 °C 35.2 °F /  1.8 °C 30.35in /  1027.7hPa NNW 1.0mph /  1.6km/h 1.0mph /  1.6km/h 87% 0.00in /  0mm
21:03 39.2 °F /  4 °C 35.4 °F /  1.9 °C 30.35in /  1027.7hPa Calm   1.0mph /  1.6km/h 86% 0.00in /  0mm
21:08 39.6 °F /  4.2 °C 35.2 °F /  1.8 °C 30.35in /  1027.7hPa NNW 2.0mph /  3.2km/h 2.0mph /  3.2km/h 84% 0.00in /  0mm
21:13 40.0 °F /  4.4 °C 35.3 °F /  1.8 °C 30.35in /  1027.7hPa North 1.0mph /  1.6km/h 1.0mph /  1.6km/h 83% 0.00in /  0mm
21:18 40.2 °F /  4.6 °C 35.2 °F /  1.8 °C 30.35in /  1027.7hPa Calm   1.0mph /  1.6km/h 82% 0.00in /  0mm
21:24 40.0 °F /  4.4 °C 35.0 °F /  1.7 °C 30.35in /  1027.7hPa Calm     82% 0.00in /  0mm
21:29 40.0 °F /  4.4 °C 35.0 °F /  1.7 °C 30.35in /  1027.7hPa Calm   1.0mph /  1.6km/h 82% 0.00in /  0mm
21:34 40.4 °F /  4.7 °C 35.0 °F /  1.7 °C 30.35in /  1027.7hPa North 1.0mph /  1.6km/h 1.0mph /  1.6km/h 81% 0.00in /  0mm
21:39 40.8 °F /  4.9 °C 35.1 °F /  1.7 °C 30.35in /  1027.7hPa North 1.0mph /  1.6km/h 1.0mph /  1.6km/h 80% 0.00in /  0mm
21:44 40.8 °F /  4.9 °C 34.8 °F /  1.6 °C 30.34in /  1027.3hPa Calm   1.0mph /  1.6km/h 79% 0.00in /  0mm
21:49 40.7 °F /  4.8 °C 35.0 °F /  1.7 °C 30.34in /  1027.3hPa Calm   1.0mph /  1.6km/h 80% 0.00in /  0mm
21:54 40.4 °F /  4.7 °C 34.7 °F /  1.5 °C 30.34in /  1027.3hPa Calm     80% 0.00in /  0mm
21:59 40.0 °F /  4.4 °C 34.3 °F /  1.3 °C 30.35in /  1027.7hPa Calm     80% 0.00in /  0mm
22:04 39.7 °F /  4.3 °C 34.7 °F /  1.5 °C 30.35in /  1027.7hPa Calm     82% 0.00in /  0mm
22:09 39.9 °F /  4.4 °C 34.9 °F /  1.6 °C 30.34in /  1027.3hPa North 1.0mph /  1.6km/h 1.0mph /  1.6km/h 82% 0.00in /  0mm
22:14 40.4 °F /  4.7 °C 35.0 °F /  1.7 °C 30.35in /  1027.7hPa North 1.0mph /  1.6km/h 1.0mph /  1.6km/h 81% 0.00in /  0mm
22:19 40.4 °F /  4.7 °C 34.7 °F /  1.5 °C 30.34in /  1027.3hPa North 1.0mph /  1.6km/h 1.0mph /  1.6km/h 80% 0.00in /  0mm
22:24 39.9 °F /  4.4 °C 34.5 °F /  1.4 °C 30.34in /  1027.3hPa Calm     81% 0.00in /  0mm
22:29 39.4 °F /  4.1 °C 34.4 °F /  1.3 °C 30.35in /  1027.7hPa Calm     82% 0.00in /  0mm
22:34 38.8 °F /  3.8 °C 33.8 °F /  1 °C 30.35in /  1027.7hPa Calm     82% 0.00in /  0mm
22:39 38.0 °F /  3.3 °C 33.3 °F /  0.7 °C 30.35in /  1027.7hPa Calm     83% 0.00in /  0mm
22:44 38.1 °F /  3.4 °C 34.6 °F /  1.4 °C 30.34in /  1027.3hPa Calm     87% 0.00in /  0mm
22:49 38.9 °F /  3.8 °C 34.8 °F /  1.6 °C 30.34in /  1027.3hPa North 1.0mph /  1.6km/h 1.0mph /  1.6km/h 85% 0.00in /  0mm
22:54 39.2 °F /  4 °C 34.8 °F /  1.6 °C 30.34in /  1027.3hPa Calm     84% 0.00in /  0mm
22:59 39.2 °F /  4 °C 34.8 °F /  1.6 °C 30.34in /  1027.3hPa Calm   1.0mph /  1.6km/h 84% 0.00in /  0mm
23:04 39.2 °F /  4 °C 34.8 °F /  1.6 °C 30.35in /  1027.7hPa Calm     84% 0.00in /  0mm
23:09 38.8 °F /  3.8 °C 34.4 °F /  1.3 °C 30.35in /  1027.7hPa Calm     84% 0.00in /  0mm
23:14 38.2 °F /  3.4 °C 33.8 °F /  1 °C 30.35in /  1027.7hPa Calm     84% 0.00in /  0mm
23:19 37.5 °F /  3.1 °C 33.7 °F /  0.9 °C 30.35in /  1027.7hPa Calm     86% 0.00in /  0mm
23:24 36.9 °F /  2.7 °C 33.4 °F /  0.8 °C 30.35in /  1027.7hPa Calm     87% 0.00in /  0mm
23:29 36.5 °F /  2.5 °C 33.3 °F /  0.7 °C 30.35in /  1027.7hPa Calm     88% 0.00in /  0mm
23:34 36.3 °F /  2.4 °C 33.1 °F /  0.6 °C 30.35in /  1027.7hPa Calm     88% 0.00in /  0mm
23:39 35.8 °F /  2.1 °C 32.6 °F /  0.3 °C 30.35in /  1027.7hPa Calm     88% 0.00in /  0mm
23:44 35.9 °F /  2.2 °C 33.3 °F /  0.7 °C 30.35in /  1027.7hPa Calm     90% 0.00in /  0mm
23:49 36.0 °F /  2.2 °C 33.1 °F /  0.6 °C 30.35in /  1027.7hPa Calm     89% 0.00in /  0mm
23:54 35.6 °F /  2 °C 32.7 °F /  0.4 °C 30.35in /  1027.7hPa Calm     89% 0.00in /  0mm
23:59 35.3 °F /  1.8 °C 32.4 °F /  0.2 °C 30.35in /  1027.7hPa Calm     89% 0.00in /  0mm
Compliments of Weather Underground